sensor_id;sensor_type;location;lat;lon;timestamp;P1;durP1;ratioP1;P2;durP2;ratioP2
58528;SDS011;44322;52.968;5.816;2022-09-17T00:02:03;12.90;;;2.20;;
58528;SDS011;44322;52.968;5.816;2022-09-17T00:04:31;15.27;;;2.38;;
58528;SDS011;44322;52.968;5.816;2022-09-17T00:06:57;10.45;;;1.95;;
58528;SDS011;44322;52.968;5.816;2022-09-17T00:09:23;11.18;;;2.55;;
58528;SDS011;44322;52.968;5.816;2022-09-17T00:11:49;9.55;;;1.85;;
58528;SDS011;44322;52.968;5.816;2022-09-17T00:14:15;14.05;;;2.20;;
58528;SDS011;44322;52.968;5.816;2022-09-17T00:16:43;9.70;;;1.90;;
58528;SDS011;44322;52.968;5.816;2022-09-17T00:19:15;11.52;;;2.35;;
58528;SDS011;44322;52.968;5.816;2022-09-17T00:21:46;9.50;;;2.03;;
58528;SDS011;44322;52.968;5.816;2022-09-17T00:24:13;9.43;;;1.80;;
58528;SDS011;44322;52.968;5.816;2022-09-17T00:26:39;11.02;;;1.50;;
58528;SDS011;44322;52.968;5.816;2022-09-17T00:29:07;9.50;;;2.05;;
58528;SDS011;44322;52.968;5.816;2022-09-17T00:31:33;10.98;;;1.80;;
58528;SDS011;44322;52.968;5.816;2022-09-17T00:34:00;7.68;;;1.80;;
58528;SDS011;44322;52.968;5.816;2022-09-17T00:36:27;15.27;;;1.98;;
58528;SDS011;44322;52.968;5.816;2022-09-17T00:38:54;14.45;;;2.28;;
58528;SDS011;44322;52.968;5.816;2022-09-17T00:41:22;15.43;;;1.83;;
58528;SDS011;44322;52.968;5.816;2022-09-17T00:46:39;8.00;;;1.98;;
58528;SDS011;44322;52.968;5.816;2022-09-17T00:49:11;12.05;;;2.13;;
58528;SDS011;44322;52.968;5.816;2022-09-17T00:51:46;10.07;;;1.90;;
58528;SDS011;44322;52.968;5.816;2022-09-17T00:54:29;16.52;;;2.40;;
58528;SDS011;44322;52.968;5.816;2022-09-17T00:56:55;11.77;;;2.08;;
58528;SDS011;44322;52.968;5.816;2022-09-17T00:59:22;8.05;;;1.90;;
58528;SDS011;44322;52.968;5.816;2022-09-17T01:01:48;8.52;;;1.50;;
58528;SDS011;44322;52.968;5.816;2022-09-17T01:04:18;12.63;;;1.75;;
58528;SDS011;44322;52.968;5.816;2022-09-17T01:06:51;12.48;;;2.00;;
58528;SDS011;44322;52.968;5.816;2022-09-17T01:15:07;10.63;;;1.73;;
58528;SDS011;44322;52.968;5.816;2022-09-17T01:32:41;8.52;;;1.60;;
58528;SDS011;44322;52.968;5.816;2022-09-17T01:43:07;7.15;;;1.45;;
58528;SDS011;44322;52.968;5.816;2022-09-17T01:45:43;8.05;;;1.38;;
58528;SDS011;44322;52.968;5.816;2022-09-17T01:48:35;6.95;;;1.45;;
58528;SDS011;44322;52.968;5.816;2022-09-17T01:51:12;6.25;;;0.85;;
58528;SDS011;44322;52.968;5.816;2022-09-17T01:53:43;9.07;;;1.38;;
58528;SDS011;44322;52.968;5.816;2022-09-17T01:56:22;12.45;;;1.52;;
58528;SDS011;44322;52.968;5.816;2022-09-17T01:59:11;7.18;;;1.27;;
58528;SDS011;44322;52.968;5.816;2022-09-17T02:01:46;7.40;;;1.77;;
58528;SDS011;44322;52.968;5.816;2022-09-17T02:04:37;9.48;;;1.80;;
58528;SDS011;44322;52.968;5.816;2022-09-17T02:07:13;9.27;;;1.58;;
58528;SDS011;44322;52.968;5.816;2022-09-17T02:12:34;9.60;;;2.15;;
58528;SDS011;44322;52.968;5.816;2022-09-17T02:15:06;9.50;;;1.60;;
58528;SDS011;44322;52.968;5.816;2022-09-17T02:17:43;9.52;;;1.65;;
58528;SDS011;44322;52.968;5.816;2022-09-17T02:20:14;9.13;;;1.70;;
58528;SDS011;44322;52.968;5.816;2022-09-17T02:27:51;10.68;;;1.55;;
58528;SDS011;44322;52.968;5.816;2022-09-17T06:45:26;6.28;;;1.13;;
58528;SDS011;44322;52.968;5.816;2022-09-17T06:47:52;5.18;;;0.80;;
58528;SDS011;44322;52.968;5.816;2022-09-17T06:50:18;6.78;;;0.80;;
58528;SDS011;44322;52.968;5.816;2022-09-17T06:52:48;5.45;;;1.08;;
58528;SDS011;44322;52.968;5.816;2022-09-17T06:55:15;4.55;;;0.60;;
58528;SDS011;44322;52.968;5.816;2022-09-17T06:57:41;3.83;;;0.88;;
58528;SDS011;44322;52.968;5.816;2022-09-17T07:00:08;6.88;;;1.02;;
58528;SDS011;44322;52.968;5.816;2022-09-17T07:05:30;4.32;;;0.90;;
58528;SDS011;44322;52.968;5.816;2022-09-17T07:10:56;4.90;;;1.38;;
58528;SDS011;44322;52.968;5.816;2022-09-17T07:13:45;6.43;;;1.00;;
58528;SDS011;44322;52.968;5.816;2022-09-17T07:16:11;5.07;;;0.93;;
58528;SDS011;44322;52.968;5.816;2022-09-17T07:18:37;8.23;;;1.00;;
58528;SDS011;44322;52.968;5.816;2022-09-17T07:21:04;4.68;;;0.68;;
58528;SDS011;44322;52.968;5.816;2022-09-17T07:23:32;2.90;;;0.60;;
58528;SDS011;44322;52.968;5.816;2022-09-17T07:26:00;7.38;;;1.00;;
58528;SDS011;44322;52.968;5.816;2022-09-17T07:28:37;4.93;;;0.70;;
58528;SDS011;44322;52.968;5.816;2022-09-17T07:31:04;3.70;;;0.80;;
58528;SDS011;44322;52.968;5.816;2022-09-17T07:33:32;2.97;;;0.60;;
58528;SDS011;44322;52.968;5.816;2022-09-17T07:36:00;5.07;;;0.70;;
58528;SDS011;44322;52.968;5.816;2022-09-17T07:38:28;5.60;;;0.98;;
58528;SDS011;44322;52.968;5.816;2022-09-17T07:40:59;5.17;;;0.80;;
58528;SDS011;44322;52.968;5.816;2022-09-17T07:43:27;5.82;;;0.73;;
58528;SDS011;44322;52.968;5.816;2022-09-17T07:45:58;1.63;;;0.65;;
58528;SDS011;44322;52.968;5.816;2022-09-17T07:48:25;4.68;;;1.17;;
58528;SDS011;44322;52.968;5.816;2022-09-17T07:50:52;6.80;;;1.00;;
58528;SDS011;44322;52.968;5.816;2022-09-17T07:53:21;8.02;;;1.05;;
58528;SDS011;44322;52.968;5.816;2022-09-17T07:55:59;4.65;;;0.70;;
58528;SDS011;44322;52.968;5.816;2022-09-17T08:01:01;7.60;;;1.52;;
58528;SDS011;44322;52.968;5.816;2022-09-17T08:03:35;8.13;;;1.30;;
58528;SDS011;44322;52.968;5.816;2022-09-17T08:06:06;8.57;;;1.58;;
58528;SDS011;44322;52.968;5.816;2022-09-17T08:08:34;7.88;;;0.93;;
58528;SDS011;44322;52.968;5.816;2022-09-17T08:11:05;5.97;;;1.08;;
58528;SDS011;44322;52.968;5.816;2022-09-17T08:13:33;7.05;;;1.00;;
58528;SDS011;44322;52.968;5.816;2022-09-17T08:15:59;7.68;;;1.08;;
58528;SDS011;44322;52.968;5.816;2022-09-17T08:18:27;8.47;;;1.17;;
58528;SDS011;44322;52.968;5.816;2022-09-17T08:21:03;8.27;;;1.02;;
58528;SDS011;44322;52.968;5.816;2022-09-17T08:23:30;7.18;;;1.38;;
58528;SDS011;44322;52.968;5.816;2022-09-17T08:25:59;9.10;;;1.13;;
58528;SDS011;44322;52.968;5.816;2022-09-17T08:28:26;5.90;;;1.83;;
58528;SDS011;44322;52.968;5.816;2022-09-17T08:30:54;3.50;;;0.90;;
58528;SDS011;44322;52.968;5.816;2022-09-17T08:33:25;6.55;;;1.40;;
58528;SDS011;44322;52.968;5.816;2022-09-17T08:35:54;5.93;;;1.20;;
58528;SDS011;44322;52.968;5.816;2022-09-17T08:38:27;5.47;;;1.60;;
58528;SDS011;44322;52.968;5.816;2022-09-17T08:46:41;7.90;;;1.33;;
58528;SDS011;44322;52.968;5.816;2022-09-17T08:49:18;8.32;;;1.50;;
58528;SDS011;44322;52.968;5.816;2022-09-17T08:57:49;8.02;;;1.48;;
58528;SDS011;44322;52.968;5.816;2022-09-17T09:00:34;11.45;;;1.10;;
58528;SDS011;44322;52.968;5.816;2022-09-17T09:05:43;6.55;;;1.40;;
58528;SDS011;44322;52.968;5.816;2022-09-17T09:08:21;6.93;;;2.03;;
58528;SDS011;44322;52.968;5.816;2022-09-17T09:10:54;6.97;;;1.90;;
58528;SDS011;44322;52.968;5.816;2022-09-17T09:13:23;8.40;;;2.40;;
58528;SDS011;44322;52.968;5.816;2022-09-17T09:16:06;5.55;;;1.42;;
58528;SDS011;44322;52.968;5.816;2022-09-17T09:19:03;6.03;;;1.60;;
58528;SDS011;44322;52.968;5.816;2022-09-17T09:25:20;6.60;;;0.90;;
58528;SDS011;44322;52.968;5.816;2022-09-17T09:33:17;2.10;;;0.65;;
58528;SDS011;44322;52.968;5.816;2022-09-17T09:35:50;2.70;;;0.45;;
58528;SDS011;44322;52.968;5.816;2022-09-17T09:44:03;7.28;;;1.25;;
58528;SDS011;44322;52.968;5.816;2022-09-17T09:49:31;4.47;;;0.65;;
58528;SDS011;44322;52.968;5.816;2022-09-17T09:58:11;3.28;;;0.57;;
58528;SDS011;44322;52.968;5.816;2022-09-17T10:00:40;5.43;;;1.17;;
58528;SDS011;44322;52.968;5.816;2022-09-17T10:03:15;3.30;;;0.60;;
58528;SDS011;44322;52.968;5.816;2022-09-17T10:05:51;3.78;;;0.55;;
58528;SDS011;44322;52.968;5.816;2022-09-17T10:08:26;5.47;;;0.60;;
58528;SDS011;44322;52.968;5.816;2022-09-17T10:13:29;4.32;;;0.85;;
58528;SDS011;44322;52.968;5.816;2022-09-17T10:16:07;4.30;;;0.90;;
58528;SDS011;44322;52.968;5.816;2022-09-17T10:18:44;3.58;;;0.80;;
58528;SDS011;44322;52.968;5.816;2022-09-17T10:26:59;5.05;;;0.80;;
58528;SDS011;44322;52.968;5.816;2022-09-17T10:29:26;4.53;;;0.75;;
58528;SDS011;44322;52.968;5.816;2022-09-17T10:31:53;3.70;;;0.73;;
58528;SDS011;44322;52.968;5.816;2022-09-17T10:34:24;6.65;;;0.80;;
58528;SDS011;44322;52.968;5.816;2022-09-17T10:36:53;5.47;;;0.77;;
58528;SDS011;44322;52.968;5.816;2022-09-17T10:41:56;5.72;;;0.70;;
58528;SDS011;44322;52.968;5.816;2022-09-17T10:44:25;4.15;;;0.90;;
58528;SDS011;44322;52.968;5.816;2022-09-17T10:47:00;4.22;;;1.20;;
58528;SDS011;44322;52.968;5.816;2022-09-17T10:49:48;3.17;;;0.65;;
58528;SDS011;44322;52.968;5.816;2022-09-17T10:52:37;5.70;;;0.80;;
58528;SDS011;44322;52.968;5.816;2022-09-17T11:32:33;10.02;;;1.30;;
58528;SDS011;44322;52.968;5.816;2022-09-17T11:35:23;9.70;;;1.30;;
58528;SDS011;44322;52.968;5.816;2022-09-17T11:40:35;11.77;;;1.60;;
58528;SDS011;44322;52.968;5.816;2022-09-17T11:45:46;9.45;;;1.70;;
58528;SDS011;44322;52.968;5.816;2022-09-17T11:48:23;7.97;;;1.40;;
58528;SDS011;44322;52.968;5.816;2022-09-17T11:51:11;5.10;;;1.52;;
58528;SDS011;44322;52.968;5.816;2022-09-17T11:53:42;9.73;;;1.65;;
58528;SDS011;44322;52.968;5.816;2022-09-17T11:56:20;8.35;;;1.35;;
58528;SDS011;44322;52.968;5.816;2022-09-17T12:15:37;11.93;;;1.75;;
58528;SDS011;44322;52.968;5.816;2022-09-17T12:21:00;10.82;;;1.67;;
58528;SDS011;44322;52.968;5.816;2022-09-17T12:23:34;9.77;;;2.03;;
58528;SDS011;44322;52.968;5.816;2022-09-17T12:26:50;11.27;;;2.03;;
58528;SDS011;44322;52.968;5.816;2022-09-17T12:29:10;12.90;;;2.25;;
58528;SDS011;44322;52.968;5.816;2022-09-17T12:40:34;7.80;;;1.13;;
58528;SDS011;44322;52.968;5.816;2022-09-17T12:43:18;7.55;;;1.60;;
58528;SDS011;44322;52.968;5.816;2022-09-17T12:46:12;6.18;;;1.23;;
58528;SDS011;44322;52.968;5.816;2022-09-17T12:57:50;8.40;;;1.52;;
58528;SDS011;44322;52.968;5.816;2022-09-17T13:00:21;8.15;;;1.50;;
58528;SDS011;44322;52.968;5.816;2022-09-17T13:02:59;7.63;;;1.25;;
58528;SDS011;44322;52.968;5.816;2022-09-17T13:22:41;3.40;;;1.05;;
58528;SDS011;44322;52.968;5.816;2022-09-17T13:25:08;2.75;;;0.63;;
58528;SDS011;44322;52.968;5.816;2022-09-17T13:27:36;4.80;;;0.80;;
58528;SDS011;44322;52.968;5.816;2022-09-17T13:30:04;4.45;;;0.80;;
58528;SDS011;44322;52.968;5.816;2022-09-17T13:37:53;2.33;;;0.80;;
58528;SDS011;44322;52.968;5.816;2022-09-17T13:42:53;3.83;;;0.65;;
58528;SDS011;44322;52.968;5.816;2022-09-17T13:45:33;5.25;;;0.90;;
58528;SDS011;44322;52.968;5.816;2022-09-17T13:48:19;3.40;;;0.60;;
58528;SDS011;44322;52.968;5.816;2022-09-17T13:50:48;4.72;;;0.65;;
58528;SDS011;44322;52.968;5.816;2022-09-17T13:55:48;6.07;;;0.90;;
58528;SDS011;44322;52.968;5.816;2022-09-17T14:00:54;7.75;;;0.80;;
58528;SDS011;44322;52.968;5.816;2022-09-17T14:04:04;6.90;;;0.88;;
58528;SDS011;44322;52.968;5.816;2022-09-17T14:16:59;6.55;;;0.90;;
58528;SDS011;44322;52.968;5.816;2022-09-17T14:19:18;7.00;;;1.48;;
58528;SDS011;44322;52.968;5.816;2022-09-17T14:30:22;4.68;;;0.73;;
58528;SDS011;44322;52.968;5.816;2022-09-17T14:33:09;5.40;;;0.85;;
58528;SDS011;44322;52.968;5.816;2022-09-17T14:35:40;4.13;;;0.88;;
58528;SDS011;44322;52.968;5.816;2022-09-17T14:38:30;4.35;;;0.70;;
58528;SDS011;44322;52.968;5.816;2022-09-17T14:46:20;7.07;;;1.33;;
58528;SDS011;44322;52.968;5.816;2022-09-17T14:48:48;7.25;;;1.65;;
58528;SDS011;44322;52.968;5.816;2022-09-17T14:56:35;14.40;;;2.30;;
58528;SDS011;44322;52.968;5.816;2022-09-17T15:01:50;10.07;;;1.80;;
58528;SDS011;44322;52.968;5.816;2022-09-17T15:06:46;10.23;;;1.83;;
58528;SDS011;44322;52.968;5.816;2022-09-17T15:09:16;6.45;;;1.45;;
58528;SDS011;44322;52.968;5.816;2022-09-17T15:11:43;11.55;;;2.00;;
58528;SDS011;44322;52.968;5.816;2022-09-17T15:14:15;9.02;;;1.83;;
58528;SDS011;44322;52.968;5.816;2022-09-17T15:16:50;6.15;;;1.80;;
58528;SDS011;44322;52.968;5.816;2022-09-17T15:19:52;10.05;;;2.00;;
58528;SDS011;44322;52.968;5.816;2022-09-17T15:22:22;11.13;;;1.95;;
58528;SDS011;44322;52.968;5.816;2022-09-17T15:24:58;5.40;;;1.20;;
58528;SDS011;44322;52.968;5.816;2022-09-17T15:27:29;13.57;;;1.80;;
58528;SDS011;44322;52.968;5.816;2022-09-17T15:30:10;12.60;;;1.90;;
58528;SDS011;44322;52.968;5.816;2022-09-17T15:32:52;5.60;;;1.45;;
58528;SDS011;44322;52.968;5.816;2022-09-17T15:35:22;7.63;;;1.40;;
58528;SDS011;44322;52.968;5.816;2022-09-17T15:37:55;8.85;;;1.20;;
58528;SDS011;44322;52.968;5.816;2022-09-17T15:40:29;6.40;;;0.82;;
58528;SDS011;44322;52.968;5.816;2022-09-17T15:43:05;8.40;;;1.10;;
58528;SDS011;44322;52.968;5.816;2022-09-17T15:45:51;6.70;;;1.33;;
58528;SDS011;44322;52.968;5.816;2022-09-17T15:51:01;6.35;;;1.27;;
58528;SDS011;44322;52.968;5.816;2022-09-17T15:53:29;7.50;;;1.30;;
58528;SDS011;44322;52.968;5.816;2022-09-17T15:58:29;6.90;;;1.38;;
58528;SDS011;44322;52.968;5.816;2022-09-17T16:08:42;9.38;;;1.45;;
58528;SDS011;44322;52.968;5.816;2022-09-17T16:11:12;8.63;;;1.27;;
58528;SDS011;44322;52.968;5.816;2022-09-17T16:13:39;7.45;;;1.42;;
58528;SDS011;44322;52.968;5.816;2022-09-17T16:16:05;5.70;;;1.40;;
58528;SDS011;44322;52.968;5.816;2022-09-17T16:18:31;7.38;;;1.33;;
58528;SDS011;44322;52.968;5.816;2022-09-17T16:20:57;6.22;;;1.23;;
58528;SDS011;44322;52.968;5.816;2022-09-17T16:23:22;5.80;;;2.10;;
58528;SDS011;44322;52.968;5.816;2022-09-17T16:25:49;7.00;;;1.10;;
58528;SDS011;44322;52.968;5.816;2022-09-17T16:28:16;4.10;;;0.93;;
58528;SDS011;44322;52.968;5.816;2022-09-17T16:30:44;5.13;;;1.98;;
58528;SDS011;44322;52.968;5.816;2022-09-17T16:33:12;5.00;;;1.25;;
58528;SDS011;44322;52.968;5.816;2022-09-17T16:35:40;6.97;;;2.20;;
58528;SDS011;44322;52.968;5.816;2022-09-17T16:38:06;5.78;;;1.40;;
58528;SDS011;44322;52.968;5.816;2022-09-17T16:40:33;7.70;;;1.38;;
58528;SDS011;44322;52.968;5.816;2022-09-17T16:43:00;5.50;;;1.23;;
58528;SDS011;44322;52.968;5.816;2022-09-17T16:45:27;8.27;;;1.50;;
58528;SDS011;44322;52.968;5.816;2022-09-17T16:47:53;9.43;;;1.43;;
58528;SDS011;44322;52.968;5.816;2022-09-17T16:50:19;7.03;;;1.20;;
58528;SDS011;44322;52.968;5.816;2022-09-17T16:52:45;8.63;;;1.30;;
58528;SDS011;44322;52.968;5.816;2022-09-17T16:55:12;5.80;;;1.05;;
58528;SDS011;44322;52.968;5.816;2022-09-17T16:57:39;8.63;;;1.35;;
58528;SDS011;44322;52.968;5.816;2022-09-17T17:00:06;4.70;;;1.27;;
58528;SDS011;44322;52.968;5.816;2022-09-17T17:02:37;5.32;;;1.20;;
58528;SDS011;44322;52.968;5.816;2022-09-17T17:05:03;6.13;;;1.23;;
58528;SDS011;44322;52.968;5.816;2022-09-17T17:07:29;5.93;;;1.10;;
58528;SDS011;44322;52.968;5.816;2022-09-17T17:09:58;5.80;;;1.10;;
58528;SDS011;44322;52.968;5.816;2022-09-17T17:12:25;6.22;;;1.10;;
58528;SDS011;44322;52.968;5.816;2022-09-17T17:14:51;8.27;;;1.40;;
58528;SDS011;44322;52.968;5.816;2022-09-17T17:17:18;7.55;;;1.15;;
58528;SDS011;44322;52.968;5.816;2022-09-17T17:19:44;4.43;;;1.02;;
58528;SDS011;44322;52.968;5.816;2022-09-17T17:22:14;5.93;;;1.23;;
58528;SDS011;44322;52.968;5.816;2022-09-17T17:24:40;8.32;;;1.27;;
58528;SDS011;44322;52.968;5.816;2022-09-17T17:27:06;8.30;;;1.30;;
58528;SDS011;44322;52.968;5.816;2022-09-17T17:29:33;5.63;;;1.48;;
58528;SDS011;44322;52.968;5.816;2022-09-17T17:32:01;5.28;;;1.15;;
58528;SDS011;44322;52.968;5.816;2022-09-17T17:34:27;5.82;;;1.10;;
58528;SDS011;44322;52.968;5.816;2022-09-17T17:36:55;7.60;;;1.25;;
58528;SDS011;44322;52.968;5.816;2022-09-17T17:39:21;5.57;;;1.00;;
58528;SDS011;44322;52.968;5.816;2022-09-17T17:41:47;8.45;;;1.40;;
58528;SDS011;44322;52.968;5.816;2022-09-17T17:44:13;5.80;;;1.20;;
58528;SDS011;44322;52.968;5.816;2022-09-17T17:46:39;8.57;;;1.42;;
58528;SDS011;44322;52.968;5.816;2022-09-17T17:49:05;6.38;;;1.38;;
58528;SDS011;44322;52.968;5.816;2022-09-17T17:51:32;4.95;;;1.10;;
58528;SDS011;44322;52.968;5.816;2022-09-17T17:53:59;6.53;;;1.05;;
58528;SDS011;44322;52.968;5.816;2022-09-17T17:56:25;4.97;;;0.98;;
58528;SDS011;44322;52.968;5.816;2022-09-17T17:58:54;3.53;;;0.95;;
58528;SDS011;44322;52.968;5.816;2022-09-17T18:01:23;8.25;;;1.45;;
58528;SDS011;44322;52.968;5.816;2022-09-17T18:03:58;3.47;;;0.80;;
58528;SDS011;44322;52.968;5.816;2022-09-17T18:06:25;5.15;;;1.30;;
58528;SDS011;44322;52.968;5.816;2022-09-17T18:08:51;6.57;;;0.98;;
58528;SDS011;44322;52.968;5.816;2022-09-17T18:11:18;3.80;;;0.85;;
58528;SDS011;44322;52.968;5.816;2022-09-17T18:13:44;3.78;;;1.00;;
58528;SDS011;44322;52.968;5.816;2022-09-17T18:16:11;4.32;;;0.60;;
58528;SDS011;44322;52.968;5.816;2022-09-17T18:18:41;4.18;;;0.70;;
58528;SDS011;44322;52.968;5.816;2022-09-17T18:21:09;3.97;;;0.80;;
58528;SDS011;44322;52.968;5.816;2022-09-17T18:26:04;3.03;;;0.52;;
58528;SDS011;44322;52.968;5.816;2022-09-17T18:28:32;2.70;;;0.70;;
58528;SDS011;44322;52.968;5.816;2022-09-17T18:31:04;3.28;;;0.90;;
58528;SDS011;44322;52.968;5.816;2022-09-17T18:33:30;6.90;;;1.25;;
58528;SDS011;44322;52.968;5.816;2022-09-17T18:35:59;8.93;;;1.02;;
58528;SDS011;44322;52.968;5.816;2022-09-17T18:38:27;7.35;;;0.88;;
58528;SDS011;44322;52.968;5.816;2022-09-17T18:40:53;7.10;;;1.00;;
58528;SDS011;44322;52.968;5.816;2022-09-17T18:43:19;5.50;;;0.75;;
58528;SDS011;44322;52.968;5.816;2022-09-17T18:45:51;4.07;;;0.60;;
58528;SDS011;44322;52.968;5.816;2022-09-17T18:48:19;8.23;;;0.90;;
58528;SDS011;44322;52.968;5.816;2022-09-17T18:50:58;2.35;;;0.65;;
58528;SDS011;44322;52.968;5.816;2022-09-17T18:53:29;1.60;;;0.55;;
58528;SDS011;44322;52.968;5.816;2022-09-17T18:56:04;4.57;;;0.88;;
58528;SDS011;44322;52.968;5.816;2022-09-17T18:58:44;4.88;;;1.15;;
58528;SDS011;44322;52.968;5.816;2022-09-17T19:01:11;3.80;;;0.90;;
58528;SDS011;44322;52.968;5.816;2022-09-17T19:03:37;3.22;;;0.70;;
58528;SDS011;44322;52.968;5.816;2022-09-17T19:06:04;4.57;;;0.75;;
58528;SDS011;44322;52.968;5.816;2022-09-17T19:10:57;3.67;;;0.65;;
58528;SDS011;44322;52.968;5.816;2022-09-17T19:13:23;4.53;;;0.75;;
58528;SDS011;44322;52.968;5.816;2022-09-17T19:15:49;4.20;;;0.90;;
58528;SDS011;44322;52.968;5.816;2022-09-17T19:18:15;6.78;;;0.80;;
58528;SDS011;44322;52.968;5.816;2022-09-17T19:20:41;4.15;;;0.80;;
58528;SDS011;44322;52.968;5.816;2022-09-17T19:23:07;4.28;;;0.88;;
58528;SDS011;44322;52.968;5.816;2022-09-17T19:25:33;5.00;;;0.95;;
58528;SDS011;44322;52.968;5.816;2022-09-17T19:28:00;4.75;;;1.00;;
58528;SDS011;44322;52.968;5.816;2022-09-17T19:30:27;7.55;;;0.90;;
58528;SDS011;44322;52.968;5.816;2022-09-17T19:32:55;5.25;;;0.88;;
58528;SDS011;44322;52.968;5.816;2022-09-17T19:35:24;5.28;;;0.93;;
58528;SDS011;44322;52.968;5.816;2022-09-17T19:37:50;4.22;;;0.80;;
58528;SDS011;44322;52.968;5.816;2022-09-17T19:40:17;4.70;;;0.82;;
58528;SDS011;44322;52.968;5.816;2022-09-17T19:42:49;6.50;;;1.33;;
58528;SDS011;44322;52.968;5.816;2022-09-17T19:45:16;6.45;;;1.17;;
58528;SDS011;44322;52.968;5.816;2022-09-17T19:47:42;6.95;;;0.93;;
58528;SDS011;44322;52.968;5.816;2022-09-17T19:50:08;4.72;;;1.00;;
58528;SDS011;44322;52.968;5.816;2022-09-17T19:52:34;6.00;;;1.02;;
58528;SDS011;44322;52.968;5.816;2022-09-17T19:55:00;8.25;;;1.25;;
58528;SDS011;44322;52.968;5.816;2022-09-17T19:57:26;3.25;;;0.80;;
58528;SDS011;44322;52.968;5.816;2022-09-17T19:59:52;7.63;;;1.27;;
58528;SDS011;44322;52.968;5.816;2022-09-17T20:02:18;4.95;;;0.90;;
58528;SDS011;44322;52.968;5.816;2022-09-17T20:04:43;5.38;;;1.00;;
58528;SDS011;44322;52.968;5.816;2022-09-17T20:07:10;4.20;;;0.88;;
58528;SDS011;44322;52.968;5.816;2022-09-17T20:09:36;7.97;;;1.05;;
58528;SDS011;44322;52.968;5.816;2022-09-17T20:12:02;5.05;;;0.90;;
58528;SDS011;44322;52.968;5.816;2022-09-17T20:14:28;5.68;;;1.17;;
58528;SDS011;44322;52.968;5.816;2022-09-17T20:16:54;6.13;;;1.00;;
58528;SDS011;44322;52.968;5.816;2022-09-17T20:19:20;7.32;;;0.80;;
58528;SDS011;44322;52.968;5.816;2022-09-17T20:21:46;3.92;;;0.85;;
58528;SDS011;44322;52.968;5.816;2022-09-17T20:24:11;5.95;;;0.85;;
58528;SDS011;44322;52.968;5.816;2022-09-17T20:26:37;12.88;;;1.08;;
58528;SDS011;44322;52.968;5.816;2022-09-17T20:29:03;6.47;;;0.93;;
58528;SDS011;44322;52.968;5.816;2022-09-17T20:31:30;5.28;;;0.70;;
58528;SDS011;44322;52.968;5.816;2022-09-17T20:33:57;5.67;;;0.90;;
58528;SDS011;44322;52.968;5.816;2022-09-17T20:36:25;5.43;;;1.02;;
58528;SDS011;44322;52.968;5.816;2022-09-17T20:38:57;9.68;;;0.90;;
58528;SDS011;44322;52.968;5.816;2022-09-17T20:41:24;5.53;;;0.90;;
58528;SDS011;44322;52.968;5.816;2022-09-17T20:43:52;4.80;;;0.85;;
58528;SDS011;44322;52.968;5.816;2022-09-17T20:46:19;7.78;;;1.23;;
58528;SDS011;44322;52.968;5.816;2022-09-17T20:48:46;7.70;;;1.30;;
58528;SDS011;44322;52.968;5.816;2022-09-17T20:51:16;7.45;;;1.00;;
58528;SDS011;44322;52.968;5.816;2022-09-17T20:53:44;3.70;;;0.80;;
58528;SDS011;44322;52.968;5.816;2022-09-17T20:56:14;7.35;;;0.93;;
58528;SDS011;44322;52.968;5.816;2022-09-17T20:58:45;6.95;;;1.10;;
58528;SDS011;44322;52.968;5.816;2022-09-17T21:01:18;4.38;;;0.70;;
58528;SDS011;44322;52.968;5.816;2022-09-17T21:03:47;6.55;;;0.80;;
58528;SDS011;44322;52.968;5.816;2022-09-17T21:08:47;8.80;;;1.10;;
58528;SDS011;44322;52.968;5.816;2022-09-17T21:11:14;5.97;;;1.10;;
58528;SDS011;44322;52.968;5.816;2022-09-17T21:13:40;7.20;;;1.20;;
58528;SDS011;44322;52.968;5.816;2022-09-17T21:16:07;3.50;;;0.90;;
58528;SDS011;44322;52.968;5.816;2022-09-17T21:18:33;6.07;;;1.33;;
58528;SDS011;44322;52.968;5.816;2022-09-17T21:21:03;6.75;;;1.48;;
58528;SDS011;44322;52.968;5.816;2022-09-17T21:23:31;7.93;;;1.00;;
58528;SDS011;44322;52.968;5.816;2022-09-17T21:26:05;3.85;;;1.85;;
58528;SDS011;44322;52.968;5.816;2022-09-17T21:28:32;7.05;;;1.20;;
58528;SDS011;44322;52.968;5.816;2022-09-17T21:33:33;3.92;;;1.15;;
58528;SDS011;44322;52.968;5.816;2022-09-17T21:36:03;8.07;;;1.23;;
58528;SDS011;44322;52.968;5.816;2022-09-17T21:38:31;4.50;;;0.90;;
58528;SDS011;44322;52.968;5.816;2022-09-17T21:40:57;6.65;;;1.00;;
58528;SDS011;44322;52.968;5.816;2022-09-17T21:46:01;7.45;;;1.30;;
58528;SDS011;44322;52.968;5.816;2022-09-17T21:48:29;7.72;;;1.20;;
58528;SDS011;44322;52.968;5.816;2022-09-17T21:53:26;6.75;;;1.30;;
58528;SDS011;44322;52.968;5.816;2022-09-17T21:55:53;5.18;;;1.13;;
58528;SDS011;44322;52.968;5.816;2022-09-17T21:58:18;8.80;;;1.52;;
58528;SDS011;44322;52.968;5.816;2022-09-17T22:00:44;6.30;;;1.23;;
58528;SDS011;44322;52.968;5.816;2022-09-17T22:03:13;9.70;;;1.30;;
58528;SDS011;44322;52.968;5.816;2022-09-17T22:05:39;6.80;;;1.38;;
58528;SDS011;44322;52.968;5.816;2022-09-17T22:08:05;10.65;;;1.50;;
58528;SDS011;44322;52.968;5.816;2022-09-17T22:10:30;8.65;;;1.40;;
58528;SDS011;44322;52.968;5.816;2022-09-17T22:12:56;9.55;;;1.38;;
58528;SDS011;44322;52.968;5.816;2022-09-17T22:15:23;8.77;;;2.10;;
58528;SDS011;44322;52.968;5.816;2022-09-17T22:17:49;11.93;;;2.25;;
58528;SDS011;44322;52.968;5.816;2022-09-17T22:20:14;9.02;;;1.50;;
58528;SDS011;44322;52.968;5.816;2022-09-17T22:22:40;10.73;;;1.55;;
58528;SDS011;44322;52.968;5.816;2022-09-17T22:25:06;11.63;;;1.83;;
58528;SDS011;44322;52.968;5.816;2022-09-17T22:27:32;6.60;;;1.27;;
58528;SDS011;44322;52.968;5.816;2022-09-17T22:29:58;6.20;;;1.75;;
58528;SDS011;44322;52.968;5.816;2022-09-17T22:32:24;12.23;;;1.60;;
58528;SDS011;44322;52.968;5.816;2022-09-17T22:34:50;8.45;;;1.23;;
58528;SDS011;44322;52.968;5.816;2022-09-17T22:37:17;9.38;;;1.33;;
58528;SDS011;44322;52.968;5.816;2022-09-17T22:39:43;7.75;;;1.55;;
58528;SDS011;44322;52.968;5.816;2022-09-17T22:42:09;9.45;;;1.30;;
58528;SDS011;44322;52.968;5.816;2022-09-17T22:44:34;10.43;;;1.75;;
58528;SDS011;44322;52.968;5.816;2022-09-17T22:47:00;10.07;;;1.58;;
58528;SDS011;44322;52.968;5.816;2022-09-17T22:49:26;7.40;;;1.40;;
58528;SDS011;44322;52.968;5.816;2022-09-17T22:51:52;9.45;;;1.35;;
58528;SDS011;44322;52.968;5.816;2022-09-17T22:54:18;9.63;;;1.10;;
58528;SDS011;44322;52.968;5.816;2022-09-17T22:56:44;6.75;;;1.40;;
58528;SDS011;44322;52.968;5.816;2022-09-17T22:59:10;7.22;;;1.15;;
58528;SDS011;44322;52.968;5.816;2022-09-17T23:01:37;9.23;;;1.40;;
58528;SDS011;44322;52.968;5.816;2022-09-17T23:04:03;8.40;;;1.10;;
58528;SDS011;44322;52.968;5.816;2022-09-17T23:06:30;8.80;;;1.27;;
58528;SDS011;44322;52.968;5.816;2022-09-17T23:08:58;5.70;;;1.00;;
58528;SDS011;44322;52.968;5.816;2022-09-17T23:11:25;6.15;;;0.93;;
58528;SDS011;44322;52.968;5.816;2022-09-17T23:13:54;9.80;;;1.40;;
58528;SDS011;44322;52.968;5.816;2022-09-17T23:16:22;6.55;;;1.70;;
58528;SDS011;44322;52.968;5.816;2022-09-17T23:18:48;6.20;;;1.45;;
58528;SDS011;44322;52.968;5.816;2022-09-17T23:21:15;6.47;;;1.50;;
58528;SDS011;44322;52.968;5.816;2022-09-17T23:26:11;6.37;;;1.20;;
58528;SDS011;44322;52.968;5.816;2022-09-17T23:28:39;5.05;;;0.95;;
58528;SDS011;44322;52.968;5.816;2022-09-17T23:31:10;3.83;;;1.20;;
58528;SDS011;44322;52.968;5.816;2022-09-17T23:33:37;6.07;;;1.10;;
58528;SDS011;44322;52.968;5.816;2022-09-17T23:36:04;6.72;;;1.23;;
58528;SDS011;44322;52.968;5.816;2022-09-17T23:38:31;6.05;;;1.27;;
58528;SDS011;44322;52.968;5.816;2022-09-17T23:41:05;7.80;;;1.30;;
58528;SDS011;44322;52.968;5.816;2022-09-17T23:43:39;5.35;;;1.25;;
58528;SDS011;44322;52.968;5.816;2022-09-17T23:46:06;4.77;;;0.80;;
58528;SDS011;44322;52.968;5.816;2022-09-17T23:48:32;9.05;;;1.35;;
58528;SDS011;44322;52.968;5.816;2022-09-17T23:50:58;6.85;;;1.00;;